Airfield :
LOGIN :

Register | Disclaimer

   EN    FR    IT 

 










Legend :    VFR   Marginal VFR   IFR   Intensive IFR   Very Intensive IFR
Visi :
Ceiling :
>= 8 km
>= 3000ft
5 to 8 km
1000 to 3000 ft
1500m to 5 km
500 to 1000 ft
800 to 1500m
200 to 500 ft
< 800m
< 200 ft
Symbols :   Thunderstorms  Fog  Heavy snow  Heavy precipitations  Wind > 20 kt
SIGMETs :     Misc.  Thunderstorms  Icing  Turbulence  Mountain Waves  Volcanic Ashes







- Airport Elevation : 90 ft
- IATA code : NTE
- Download approach charts


LFRS - Nantes

CURRENT METAR :
  • 210830Z AUTO 06008KT 8000 NSC 10/08 Q1026 NOSIG

EXPIRED METARs :
  • 210800Z AUTO 05007KT 360V070 7000 NSC 10/07 Q1026 NOSIG
  • 210730Z AUTO 04006KT 360V070 5000 BR NSC 09/07 Q1026 NOSIG
  • 210700Z AUTO 04005KT 010V070 4800 BR NSC 08/07 Q1026 BECMG 9999 NSW
  • 210630Z AUTO 02004KT 350V050 4900 BR NSC 06/05 Q1026 BECMG 9999 NSW
  • 210600Z AUTO VRB02KT 6000 NSC 07/05 Q1026 NOSIG

TAF AMD TAF LFRS
Valid from the 21 at 06:00 until the 22 at 12:00 UTC


210641Z 2106/2212 05006KT CAVOK
TEMPO 2106/2108 4000 BR
BECMG 2202/2204 BKN004
BECMG 2209/2212 BKN010
ATIS : +33 2 40 05 12 74
No reported NOTAMs for that airfield.



MET'MAP, your aeronautical weather chart ! - Copyright ORBIFLY December 2007 - Disclaimer

ORBIFLY MET'MAP TEAM :

Programming & Development : Alexandra Zaïnal
Concept & Development : Baudouin d'Aumeries
Co-Development & Prog : Marc-Olivier Méhu
Technical & hardware support : Manuel Goepfert

Contact : metmap@orbifly.com




SOURCES & CREDITS :

   NOAA